sensor_id;sensor_type;location;lat;lon;timestamp;P1;durP1;ratioP1;P2;durP2;ratioP2
32200;SDS011;18701;45.588;5.288;2023-02-01T00:00:14;12.77;;;7.45;;
32200;SDS011;18701;45.588;5.288;2023-02-01T00:02:40;12.70;;;6.82;;
32200;SDS011;18701;45.588;5.288;2023-02-01T00:05:07;15.48;;;8.27;;
32200;SDS011;18701;45.588;5.288;2023-02-01T00:07:34;13.10;;;7.75;;
32200;SDS011;18701;45.588;5.288;2023-02-01T00:10:00;15.48;;;7.50;;
32200;SDS011;18701;45.588;5.288;2023-02-01T00:12:25;16.40;;;8.32;;
32200;SDS011;18701;45.588;5.288;2023-02-01T00:14:51;18.75;;;8.82;;
32200;SDS011;18701;45.588;5.288;2023-02-01T00:17:17;14.95;;;7.57;;
32200;SDS011;18701;45.588;5.288;2023-02-01T00:19:42;15.55;;;7.70;;
32200;SDS011;18701;45.588;5.288;2023-02-01T00:22:08;14.05;;;7.90;;
32200;SDS011;18701;45.588;5.288;2023-02-01T00:24:34;13.15;;;7.55;;
32200;SDS011;18701;45.588;5.288;2023-02-01T00:26:59;13.85;;;7.88;;
32200;SDS011;18701;45.588;5.288;2023-02-01T00:29:25;16.65;;;7.65;;
32200;SDS011;18701;45.588;5.288;2023-02-01T00:31:51;15.82;;;8.45;;
32200;SDS011;18701;45.588;5.288;2023-02-01T00:34:17;19.50;;;8.77;;
32200;SDS011;18701;45.588;5.288;2023-02-01T00:36:44;15.52;;;8.93;;
32200;SDS011;18701;45.588;5.288;2023-02-01T00:39:10;18.05;;;9.00;;
32200;SDS011;18701;45.588;5.288;2023-02-01T00:41:36;21.55;;;8.73;;
32200;SDS011;18701;45.588;5.288;2023-02-01T00:44:02;16.67;;;8.07;;
32200;SDS011;18701;45.588;5.288;2023-02-01T00:46:28;13.63;;;8.18;;
32200;SDS011;18701;45.588;5.288;2023-02-01T00:48:54;15.75;;;8.13;;
32200;SDS011;18701;45.588;5.288;2023-02-01T00:51:21;13.68;;;7.80;;
32200;SDS011;18701;45.588;5.288;2023-02-01T00:53:48;14.93;;;7.93;;
32200;SDS011;18701;45.588;5.288;2023-02-01T00:56:15;12.95;;;7.22;;
32200;SDS011;18701;45.588;5.288;2023-02-01T00:58:41;15.88;;;8.27;;
32200;SDS011;18701;45.588;5.288;2023-02-01T01:01:08;18.33;;;8.80;;
32200;SDS011;18701;45.588;5.288;2023-02-01T01:03:46;15.05;;;8.07;;
32200;SDS011;18701;45.588;5.288;2023-02-01T01:06:19;14.45;;;7.28;;
32200;SDS011;18701;45.588;5.288;2023-02-01T01:08:47;14.45;;;7.57;;
32200;SDS011;18701;45.588;5.288;2023-02-01T01:11:14;18.17;;;7.90;;
32200;SDS011;18701;45.588;5.288;2023-02-01T01:13:42;14.68;;;8.13;;
32200;SDS011;18701;45.588;5.288;2023-02-01T01:16:09;16.52;;;8.32;;
32200;SDS011;18701;45.588;5.288;2023-02-01T01:18:35;19.75;;;9.18;;
32200;SDS011;18701;45.588;5.288;2023-02-01T01:21:03;20.40;;;9.40;;
32200;SDS011;18701;45.588;5.288;2023-02-01T01:23:29;24.42;;;9.23;;
32200;SDS011;18701;45.588;5.288;2023-02-01T01:25:55;20.63;;;9.43;;
32200;SDS011;18701;45.588;5.288;2023-02-01T01:28:21;22.85;;;9.75;;
32200;SDS011;18701;45.588;5.288;2023-02-01T01:30:47;22.85;;;10.60;;
32200;SDS011;18701;45.588;5.288;2023-02-01T01:33:12;22.30;;;10.65;;
32200;SDS011;18701;45.588;5.288;2023-02-01T01:35:38;25.55;;;10.50;;
32200;SDS011;18701;45.588;5.288;2023-02-01T01:38:04;22.27;;;10.20;;
32200;SDS011;18701;45.588;5.288;2023-02-01T01:40:30;24.13;;;10.25;;
32200;SDS011;18701;45.588;5.288;2023-02-01T01:42:56;22.65;;;10.60;;
32200;SDS011;18701;45.588;5.288;2023-02-01T01:47:59;22.80;;;10.60;;
32200;SDS011;18701;45.588;5.288;2023-02-01T01:50:39;19.52;;;9.68;;
32200;SDS011;18701;45.588;5.288;2023-02-01T01:53:13;20.45;;;10.05;;
32200;SDS011;18701;45.588;5.288;2023-02-01T01:55:43;15.98;;;9.68;;
32200;SDS011;18701;45.588;5.288;2023-02-01T01:58:12;21.10;;;8.93;;
32200;SDS011;18701;45.588;5.288;2023-02-01T02:00:43;19.65;;;9.90;;
32200;SDS011;18701;45.588;5.288;2023-02-01T02:03:21;17.75;;;9.90;;
32200;SDS011;18701;45.588;5.288;2023-02-01T02:05:58;18.92;;;9.40;;
32200;SDS011;18701;45.588;5.288;2023-02-01T02:08:26;18.05;;;9.38;;
32200;SDS011;18701;45.588;5.288;2023-02-01T02:10:52;17.88;;;9.02;;
32200;SDS011;18701;45.588;5.288;2023-02-01T02:13:25;16.20;;;8.43;;
32200;SDS011;18701;45.588;5.288;2023-02-01T02:16:16;19.65;;;8.80;;
32200;SDS011;18701;45.588;5.288;2023-02-01T02:18:48;19.00;;;8.73;;
32200;SDS011;18701;45.588;5.288;2023-02-01T02:23:59;16.85;;;9.05;;
32200;SDS011;18701;45.588;5.288;2023-02-01T02:35:23;19.08;;;9.52;;
32200;SDS011;18701;45.588;5.288;2023-02-01T02:38:12;17.15;;;9.02;;
32200;SDS011;18701;45.588;5.288;2023-02-01T02:40:45;16.52;;;9.27;;
32200;SDS011;18701;45.588;5.288;2023-02-01T02:43:23;20.73;;;9.65;;
32200;SDS011;18701;45.588;5.288;2023-02-01T02:46:25;17.73;;;8.65;;
32200;SDS011;18701;45.588;5.288;2023-02-01T02:49:34;17.45;;;8.85;;
32200;SDS011;18701;45.588;5.288;2023-02-01T02:52:12;16.23;;;8.65;;
32200;SDS011;18701;45.588;5.288;2023-02-01T02:55:00;17.30;;;8.70;;
32200;SDS011;18701;45.588;5.288;2023-02-01T03:00:20;16.05;;;8.70;;
32200;SDS011;18701;45.588;5.288;2023-02-01T03:03:07;17.75;;;9.05;;
32200;SDS011;18701;45.588;5.288;2023-02-01T03:05:52;16.65;;;9.23;;
32200;SDS011;18701;45.588;5.288;2023-02-01T03:08:18;18.17;;;9.38;;
32200;SDS011;18701;45.588;5.288;2023-02-01T03:13:53;16.42;;;8.40;;
32200;SDS011;18701;45.588;5.288;2023-02-01T03:16:23;15.57;;;8.68;;
32200;SDS011;18701;45.588;5.288;2023-02-01T03:18:57;16.67;;;9.35;;
32200;SDS011;18701;45.588;5.288;2023-02-01T03:21:31;16.98;;;9.27;;
32200;SDS011;18701;45.588;5.288;2023-02-01T03:24:12;14.90;;;8.18;;
32200;SDS011;18701;45.588;5.288;2023-02-01T03:26:51;18.10;;;8.00;;
32200;SDS011;18701;45.588;5.288;2023-02-01T03:29:24;16.60;;;8.85;;
32200;SDS011;18701;45.588;5.288;2023-02-01T03:31:57;14.88;;;7.90;;
32200;SDS011;18701;45.588;5.288;2023-02-01T03:34:22;16.70;;;8.70;;
32200;SDS011;18701;45.588;5.288;2023-02-01T03:36:50;15.88;;;8.45;;
32200;SDS011;18701;45.588;5.288;2023-02-01T03:39:40;15.18;;;8.05;;
32200;SDS011;18701;45.588;5.288;2023-02-01T03:42:18;15.30;;;7.30;;
32200;SDS011;18701;45.588;5.288;2023-02-01T03:47:23;14.73;;;8.27;;
32200;SDS011;18701;45.588;5.288;2023-02-01T03:50:04;14.95;;;7.72;;
32200;SDS011;18701;45.588;5.288;2023-02-01T03:52:36;13.48;;;8.00;;
32200;SDS011;18701;45.588;5.288;2023-02-01T03:55:12;16.45;;;7.72;;
32200;SDS011;18701;45.588;5.288;2023-02-01T03:57:43;16.50;;;8.00;;
32200;SDS011;18701;45.588;5.288;2023-02-01T04:00:21;16.42;;;8.32;;
32200;SDS011;18701;45.588;5.288;2023-02-01T04:02:48;13.25;;;7.97;;
32200;SDS011;18701;45.588;5.288;2023-02-01T04:05:14;15.15;;;7.65;;
32200;SDS011;18701;45.588;5.288;2023-02-01T04:07:40;12.70;;;7.63;;
32200;SDS011;18701;45.588;5.288;2023-02-01T04:10:06;14.57;;;7.57;;
32200;SDS011;18701;45.588;5.288;2023-02-01T04:12:32;18.20;;;8.40;;
32200;SDS011;18701;45.588;5.288;2023-02-01T04:14:58;12.10;;;7.13;;
32200;SDS011;18701;45.588;5.288;2023-02-01T04:17:24;12.82;;;7.63;;
32200;SDS011;18701;45.588;5.288;2023-02-01T04:19:49;13.82;;;7.53;;
32200;SDS011;18701;45.588;5.288;2023-02-01T04:22:15;11.15;;;7.22;;
32200;SDS011;18701;45.588;5.288;2023-02-01T04:24:41;15.13;;;7.80;;
32200;SDS011;18701;45.588;5.288;2023-02-01T04:27:06;16.58;;;8.30;;
32200;SDS011;18701;45.588;5.288;2023-02-01T04:29:32;14.40;;;7.53;;
32200;SDS011;18701;45.588;5.288;2023-02-01T04:31:58;13.27;;;7.18;;
32200;SDS011;18701;45.588;5.288;2023-02-01T04:34:24;15.13;;;7.68;;
32200;SDS011;18701;45.588;5.288;2023-02-01T04:36:50;12.73;;;7.53;;
32200;SDS011;18701;45.588;5.288;2023-02-01T04:39:16;16.90;;;7.93;;
32200;SDS011;18701;45.588;5.288;2023-02-01T04:41:41;19.35;;;8.60;;
32200;SDS011;18701;45.588;5.288;2023-02-01T04:44:09;16.92;;;8.25;;
32200;SDS011;18701;45.588;5.288;2023-02-01T04:46:40;15.23;;;7.97;;
32200;SDS011;18701;45.588;5.288;2023-02-01T04:49:05;12.70;;;7.18;;
32200;SDS011;18701;45.588;5.288;2023-02-01T04:51:31;14.43;;;7.47;;
32200;SDS011;18701;45.588;5.288;2023-02-01T04:53:59;14.23;;;7.63;;
32200;SDS011;18701;45.588;5.288;2023-02-01T04:56:24;15.15;;;8.02;;
32200;SDS011;18701;45.588;5.288;2023-02-01T04:58:50;11.85;;;7.18;;
32200;SDS011;18701;45.588;5.288;2023-02-01T05:01:15;14.45;;;8.77;;
32200;SDS011;18701;45.588;5.288;2023-02-01T05:03:41;13.48;;;7.93;;
32200;SDS011;18701;45.588;5.288;2023-02-01T05:06:07;15.50;;;7.13;;
32200;SDS011;18701;45.588;5.288;2023-02-01T05:08:32;18.08;;;8.55;;
32200;SDS011;18701;45.588;5.288;2023-02-01T05:10:58;16.77;;;8.02;;
32200;SDS011;18701;45.588;5.288;2023-02-01T05:13:24;19.15;;;8.57;;
32200;SDS011;18701;45.588;5.288;2023-02-01T05:16:08;18.88;;;7.85;;
32200;SDS011;18701;45.588;5.288;2023-02-01T05:18:34;19.52;;;8.90;;
32200;SDS011;18701;45.588;5.288;2023-02-01T05:21:00;18.50;;;9.30;;
32200;SDS011;18701;45.588;5.288;2023-02-01T05:23:26;16.52;;;7.47;;
32200;SDS011;18701;45.588;5.288;2023-02-01T05:25:52;16.42;;;8.45;;
32200;SDS011;18701;45.588;5.288;2023-02-01T05:28:22;21.10;;;8.43;;
32200;SDS011;18701;45.588;5.288;2023-02-01T05:30:48;14.98;;;7.68;;
32200;SDS011;18701;45.588;5.288;2023-02-01T05:33:13;14.88;;;7.93;;
32200;SDS011;18701;45.588;5.288;2023-02-01T05:35:39;14.05;;;7.72;;
32200;SDS011;18701;45.588;5.288;2023-02-01T05:38:05;12.90;;;7.75;;
32200;SDS011;18701;45.588;5.288;2023-02-01T05:40:30;11.30;;;7.40;;
32200;SDS011;18701;45.588;5.288;2023-02-01T05:42:56;14.63;;;6.93;;
32200;SDS011;18701;45.588;5.288;2023-02-01T05:45:21;16.52;;;7.78;;
32200;SDS011;18701;45.588;5.288;2023-02-01T05:47:47;19.92;;;7.07;;
32200;SDS011;18701;45.588;5.288;2023-02-01T05:50:13;15.38;;;8.25;;
32200;SDS011;18701;45.588;5.288;2023-02-01T05:52:38;14.10;;;7.47;;
32200;SDS011;18701;45.588;5.288;2023-02-01T05:55:04;18.25;;;8.00;;
32200;SDS011;18701;45.588;5.288;2023-02-01T05:57:30;18.48;;;8.75;;
32200;SDS011;18701;45.588;5.288;2023-02-01T05:59:56;16.33;;;8.18;;
32200;SDS011;18701;45.588;5.288;2023-02-01T06:02:21;14.02;;;7.97;;
32200;SDS011;18701;45.588;5.288;2023-02-01T06:04:49;15.25;;;8.43;;
32200;SDS011;18701;45.588;5.288;2023-02-01T06:07:15;15.90;;;8.32;;
32200;SDS011;18701;45.588;5.288;2023-02-01T06:09:40;19.75;;;7.05;;
32200;SDS011;18701;45.588;5.288;2023-02-01T06:12:06;14.82;;;7.50;;
32200;SDS011;18701;45.588;5.288;2023-02-01T06:14:32;14.82;;;7.50;;
32200;SDS011;18701;45.588;5.288;2023-02-01T06:16:57;15.10;;;8.15;;
32200;SDS011;18701;45.588;5.288;2023-02-01T06:19:23;13.65;;;7.78;;
32200;SDS011;18701;45.588;5.288;2023-02-01T06:21:49;12.32;;;7.65;;
32200;SDS011;18701;45.588;5.288;2023-02-01T06:24:14;18.67;;;9.07;;
32200;SDS011;18701;45.588;5.288;2023-02-01T06:26:40;17.40;;;8.35;;
32200;SDS011;18701;45.588;5.288;2023-02-01T06:29:07;14.98;;;8.15;;
32200;SDS011;18701;45.588;5.288;2023-02-01T06:31:35;14.70;;;8.05;;
32200;SDS011;18701;45.588;5.288;2023-02-01T06:34:00;17.25;;;8.20;;
32200;SDS011;18701;45.588;5.288;2023-02-01T06:36:28;14.52;;;8.65;;
32200;SDS011;18701;45.588;5.288;2023-02-01T06:38:55;15.05;;;7.68;;
32200;SDS011;18701;45.588;5.288;2023-02-01T06:41:21;20.48;;;8.88;;
32200;SDS011;18701;45.588;5.288;2023-02-01T06:43:47;17.30;;;8.25;;
32200;SDS011;18701;45.588;5.288;2023-02-01T06:46:13;19.33;;;9.20;;
32200;SDS011;18701;45.588;5.288;2023-02-01T06:48:39;14.65;;;8.60;;
32200;SDS011;18701;45.588;5.288;2023-02-01T06:51:05;17.52;;;9.60;;
32200;SDS011;18701;45.588;5.288;2023-02-01T06:53:31;16.75;;;8.48;;
32200;SDS011;18701;45.588;5.288;2023-02-01T06:56:00;16.23;;;8.70;;
32200;SDS011;18701;45.588;5.288;2023-02-01T06:58:28;13.77;;;8.27;;
32200;SDS011;18701;45.588;5.288;2023-02-01T07:00:55;19.90;;;8.50;;
32200;SDS011;18701;45.588;5.288;2023-02-01T07:03:20;17.15;;;9.02;;
32200;SDS011;18701;45.588;5.288;2023-02-01T07:05:49;13.68;;;8.70;;
32200;SDS011;18701;45.588;5.288;2023-02-01T07:08:14;16.88;;;9.45;;
32200;SDS011;18701;45.588;5.288;2023-02-01T07:10:40;16.13;;;9.50;;
32200;SDS011;18701;45.588;5.288;2023-02-01T07:13:06;19.15;;;10.30;;
32200;SDS011;18701;45.588;5.288;2023-02-01T07:15:32;18.92;;;9.98;;
32200;SDS011;18701;45.588;5.288;2023-02-01T07:17:57;19.70;;;9.10;;
32200;SDS011;18701;45.588;5.288;2023-02-01T07:20:23;16.23;;;9.77;;
32200;SDS011;18701;45.588;5.288;2023-02-01T07:22:49;21.17;;;9.27;;
32200;SDS011;18701;45.588;5.288;2023-02-01T07:25:19;18.60;;;9.82;;
32200;SDS011;18701;45.588;5.288;2023-02-01T07:27:45;17.73;;;8.98;;
32200;SDS011;18701;45.588;5.288;2023-02-01T07:30:11;20.63;;;9.25;;
32200;SDS011;18701;45.588;5.288;2023-02-01T07:32:37;20.67;;;9.50;;
32200;SDS011;18701;45.588;5.288;2023-02-01T07:35:03;20.83;;;9.90;;
32200;SDS011;18701;45.588;5.288;2023-02-01T07:37:29;28.98;;;10.35;;
32200;SDS011;18701;45.588;5.288;2023-02-01T07:39:55;20.52;;;10.32;;
32200;SDS011;18701;45.588;5.288;2023-02-01T07:42:21;29.13;;;10.25;;
32200;SDS011;18701;45.588;5.288;2023-02-01T07:44:46;20.95;;;10.05;;
32200;SDS011;18701;45.588;5.288;2023-02-01T07:47:12;18.75;;;9.55;;
32200;SDS011;18701;45.588;5.288;2023-02-01T07:49:38;26.27;;;11.00;;
32200;SDS011;18701;45.588;5.288;2023-02-01T07:52:03;19.30;;;10.40;;
32200;SDS011;18701;45.588;5.288;2023-02-01T07:54:29;23.25;;;9.50;;
32200;SDS011;18701;45.588;5.288;2023-02-01T07:56:54;23.48;;;10.43;;
32200;SDS011;18701;45.588;5.288;2023-02-01T07:59:20;20.75;;;10.45;;
32200;SDS011;18701;45.588;5.288;2023-02-01T08:01:46;19.48;;;10.13;;
32200;SDS011;18701;45.588;5.288;2023-02-01T08:04:12;17.38;;;9.95;;
32200;SDS011;18701;45.588;5.288;2023-02-01T08:06:38;17.85;;;9.93;;
32200;SDS011;18701;45.588;5.288;2023-02-01T08:09:04;25.30;;;10.70;;
32200;SDS011;18701;45.588;5.288;2023-02-01T08:11:32;27.05;;;10.00;;
32200;SDS011;18701;45.588;5.288;2023-02-01T08:13:59;17.85;;;9.60;;
32200;SDS011;18701;45.588;5.288;2023-02-01T08:16:24;20.05;;;9.50;;
32200;SDS011;18701;45.588;5.288;2023-02-01T08:18:51;16.80;;;8.73;;
32200;SDS011;18701;45.588;5.288;2023-02-01T08:21:18;23.23;;;9.45;;
32200;SDS011;18701;45.588;5.288;2023-02-01T08:23:48;15.75;;;8.52;;
32200;SDS011;18701;45.588;5.288;2023-02-01T08:26:22;17.73;;;9.32;;
32200;SDS011;18701;45.588;5.288;2023-02-01T08:28:57;15.45;;;9.02;;
32200;SDS011;18701;45.588;5.288;2023-02-01T08:31:25;15.45;;;9.43;;
32200;SDS011;18701;45.588;5.288;2023-02-01T08:33:54;13.40;;;9.13;;
32200;SDS011;18701;45.588;5.288;2023-02-01T08:36:22;17.60;;;8.05;;
32200;SDS011;18701;45.588;5.288;2023-02-01T08:38:49;16.58;;;9.23;;
32200;SDS011;18701;45.588;5.288;2023-02-01T08:41:15;16.00;;;8.70;;
32200;SDS011;18701;45.588;5.288;2023-02-01T08:43:42;14.00;;;9.02;;
32200;SDS011;18701;45.588;5.288;2023-02-01T08:46:09;17.77;;;9.10;;
32200;SDS011;18701;45.588;5.288;2023-02-01T08:48:35;19.67;;;10.10;;
32200;SDS011;18701;45.588;5.288;2023-02-01T08:51:02;16.45;;;8.23;;
32200;SDS011;18701;45.588;5.288;2023-02-01T08:53:38;16.95;;;9.05;;
32200;SDS011;18701;45.588;5.288;2023-02-01T08:56:08;18.15;;;8.30;;
32200;SDS011;18701;45.588;5.288;2023-02-01T08:58:35;15.80;;;8.90;;
32200;SDS011;18701;45.588;5.288;2023-02-01T09:01:04;18.77;;;9.30;;
32200;SDS011;18701;45.588;5.288;2023-02-01T09:03:34;16.90;;;10.20;;
32200;SDS011;18701;45.588;5.288;2023-02-01T09:06:01;23.02;;;12.32;;
32200;SDS011;18701;45.588;5.288;2023-02-01T09:08:28;24.17;;;11.70;;
32200;SDS011;18701;45.588;5.288;2023-02-01T09:10:57;24.10;;;10.57;;
32200;SDS011;18701;45.588;5.288;2023-02-01T09:13:25;13.43;;;8.23;;
32200;SDS011;18701;45.588;5.288;2023-02-01T09:15:51;18.42;;;8.02;;
32200;SDS011;18701;45.588;5.288;2023-02-01T09:18:17;11.45;;;7.55;;
32200;SDS011;18701;45.588;5.288;2023-02-01T09:20:42;13.30;;;7.10;;
32200;SDS011;18701;45.588;5.288;2023-02-01T09:23:08;12.25;;;6.78;;
32200;SDS011;18701;45.588;5.288;2023-02-01T09:25:34;14.77;;;7.82;;
32200;SDS011;18701;45.588;5.288;2023-02-01T09:28:01;14.88;;;8.23;;
32200;SDS011;18701;45.588;5.288;2023-02-01T09:30:28;14.43;;;7.65;;
32200;SDS011;18701;45.588;5.288;2023-02-01T09:32:54;13.10;;;7.60;;
32200;SDS011;18701;45.588;5.288;2023-02-01T09:35:20;14.07;;;7.35;;
32200;SDS011;18701;45.588;5.288;2023-02-01T09:37:45;11.13;;;6.82;;
32200;SDS011;18701;45.588;5.288;2023-02-01T09:40:15;10.93;;;6.75;;
32200;SDS011;18701;45.588;5.288;2023-02-01T09:42:51;14.57;;;7.90;;
32200;SDS011;18701;45.588;5.288;2023-02-01T09:45:24;16.70;;;8.35;;
32200;SDS011;18701;45.588;5.288;2023-02-01T09:48:11;17.30;;;8.45;;
32200;SDS011;18701;45.588;5.288;2023-02-01T09:50:47;14.90;;;8.35;;
32200;SDS011;18701;45.588;5.288;2023-02-01T09:53:18;16.08;;;8.38;;
32200;SDS011;18701;45.588;5.288;2023-02-01T09:58:19;21.70;;;9.05;;
32200;SDS011;18701;45.588;5.288;2023-02-01T10:00:56;14.13;;;8.57;;
32200;SDS011;18701;45.588;5.288;2023-02-01T10:03:24;15.13;;;7.93;;
32200;SDS011;18701;45.588;5.288;2023-02-01T10:16:56;16.13;;;6.68;;
32200;SDS011;18701;45.588;5.288;2023-02-01T10:28:22;12.00;;;5.70;;
32200;SDS011;18701;45.588;5.288;2023-02-01T10:30:51;12.15;;;5.55;;
32200;SDS011;18701;45.588;5.288;2023-02-01T10:34:06;10.73;;;5.97;;
32200;SDS011;18701;45.588;5.288;2023-02-01T10:38:59;12.18;;;5.57;;
32200;SDS011;18701;45.588;5.288;2023-02-01T10:41:36;10.63;;;5.22;;
32200;SDS011;18701;45.588;5.288;2023-02-01T10:44:05;10.93;;;6.10;;
32200;SDS011;18701;45.588;5.288;2023-02-01T10:46:38;12.43;;;6.00;;
32200;SDS011;18701;45.588;5.288;2023-02-01T10:49:04;13.38;;;6.57;;
32200;SDS011;18701;45.588;5.288;2023-02-01T10:51:44;17.80;;;6.65;;
32200;SDS011;18701;45.588;5.288;2023-02-01T10:54:19;12.30;;;5.68;;
32200;SDS011;18701;45.588;5.288;2023-02-01T10:56:47;11.93;;;6.05;;
32200;SDS011;18701;45.588;5.288;2023-02-01T10:59:18;16.05;;;6.53;;
32200;SDS011;18701;45.588;5.288;2023-02-01T11:01:49;13.35;;;6.32;;
32200;SDS011;18701;45.588;5.288;2023-02-01T11:04:16;9.88;;;4.63;;
32200;SDS011;18701;45.588;5.288;2023-02-01T11:06:45;8.55;;;4.47;;
32200;SDS011;18701;45.588;5.288;2023-02-01T11:09:18;12.35;;;5.07;;
32200;SDS011;18701;45.588;5.288;2023-02-01T11:14:26;8.90;;;3.92;;
32200;SDS011;18701;45.588;5.288;2023-02-01T11:17:00;12.00;;;4.13;;
32200;SDS011;18701;45.588;5.288;2023-02-01T11:19:27;13.75;;;3.70;;
32200;SDS011;18701;45.588;5.288;2023-02-01T11:21:54;12.70;;;3.72;;
32200;SDS011;18701;45.588;5.288;2023-02-01T11:24:23;12.20;;;3.42;;
32200;SDS011;18701;45.588;5.288;2023-02-01T11:26:59;8.00;;;2.97;;
32200;SDS011;18701;45.588;5.288;2023-02-01T11:29:27;10.52;;;3.05;;
32200;SDS011;18701;45.588;5.288;2023-02-01T11:32:00;9.70;;;3.45;;
32200;SDS011;18701;45.588;5.288;2023-02-01T11:34:37;8.70;;;3.50;;
32200;SDS011;18701;45.588;5.288;2023-02-01T11:37:09;6.15;;;3.30;;
32200;SDS011;18701;45.588;5.288;2023-02-01T11:40:04;10.98;;;2.50;;
32200;SDS011;18701;45.588;5.288;2023-02-01T11:42:54;8.07;;;2.92;;
32200;SDS011;18701;45.588;5.288;2023-02-01T11:47:56;5.90;;;2.25;;
32200;SDS011;18701;45.588;5.288;2023-02-01T11:56:33;6.95;;;2.45;;
32200;SDS011;18701;45.588;5.288;2023-02-01T12:10:32;5.53;;;1.88;;
32200;SDS011;18701;45.588;5.288;2023-02-01T12:16:00;6.32;;;2.53;;
32200;SDS011;18701;45.588;5.288;2023-02-01T12:41:40;8.32;;;3.17;;
32200;SDS011;18701;45.588;5.288;2023-02-01T12:46:54;13.70;;;2.72;;
32200;SDS011;18701;45.588;5.288;2023-02-01T12:52:19;12.07;;;3.70;;
32200;SDS011;18701;45.588;5.288;2023-02-01T12:54:52;8.38;;;3.10;;
32200;SDS011;18701;45.588;5.288;2023-02-01T12:57:30;10.02;;;3.15;;
32200;SDS011;18701;45.588;5.288;2023-02-01T13:02:43;5.90;;;2.55;;
32200;SDS011;18701;45.588;5.288;2023-02-01T13:05:30;11.18;;;3.00;;
32200;SDS011;18701;45.588;5.288;2023-02-01T13:08:08;9.05;;;2.53;;
32200;SDS011;18701;45.588;5.288;2023-02-01T13:10:40;8.48;;;2.22;;
32200;SDS011;18701;45.588;5.288;2023-02-01T13:16:02;8.07;;;1.92;;
32200;SDS011;18701;45.588;5.288;2023-02-01T13:18:38;7.72;;;1.88;;
32200;SDS011;18701;45.588;5.288;2023-02-01T13:21:13;7.97;;;1.63;;
32200;SDS011;18701;45.588;5.288;2023-02-01T13:23:43;6.57;;;1.80;;
32200;SDS011;18701;45.588;5.288;2023-02-01T13:26:11;4.85;;;1.83;;
32200;SDS011;18701;45.588;5.288;2023-02-01T13:28:56;9.30;;;1.58;;
32200;SDS011;18701;45.588;5.288;2023-02-01T13:31:37;5.28;;;2.03;;
32200;SDS011;18701;45.588;5.288;2023-02-01T13:39:59;7.85;;;1.38;;
32200;SDS011;18701;45.588;5.288;2023-02-01T13:42:44;8.02;;;1.33;;
32200;SDS011;18701;45.588;5.288;2023-02-01T13:45:31;6.32;;;0.95;;
32200;SDS011;18701;45.588;5.288;2023-02-01T13:48:02;3.65;;;0.90;;
32200;SDS011;18701;45.588;5.288;2023-02-01T13:53:03;4.95;;;1.73;;
32200;SDS011;18701;45.588;5.288;2023-02-01T13:55:39;4.57;;;1.02;;
32200;SDS011;18701;45.588;5.288;2023-02-01T14:00:43;5.32;;;1.35;;
32200;SDS011;18701;45.588;5.288;2023-02-01T14:10:47;5.20;;;1.15;;
32200;SDS011;18701;45.588;5.288;2023-02-01T14:13:26;10.57;;;2.25;;
32200;SDS011;18701;45.588;5.288;2023-02-01T14:23:44;6.93;;;1.38;;
32200;SDS011;18701;45.588;5.288;2023-02-01T14:26:21;8.25;;;1.75;;
32200;SDS011;18701;45.588;5.288;2023-02-01T14:37:23;7.35;;;1.33;;
32200;SDS011;18701;45.588;5.288;2023-02-01T14:39:58;6.75;;;1.52;;
32200;SDS011;18701;45.588;5.288;2023-02-01T14:42:44;5.03;;;1.48;;
32200;SDS011;18701;45.588;5.288;2023-02-01T14:58:13;4.90;;;1.27;;
32200;SDS011;18701;45.588;5.288;2023-02-01T15:00:59;6.72;;;1.75;;
32200;SDS011;18701;45.588;5.288;2023-02-01T15:06:20;5.82;;;1.45;;
32200;SDS011;18701;45.588;5.288;2023-02-01T15:08:52;4.18;;;1.45;;
32200;SDS011;18701;45.588;5.288;2023-02-01T15:11:23;3.67;;;1.00;;
32200;SDS011;18701;45.588;5.288;2023-02-01T15:13:50;5.88;;;1.40;;
32200;SDS011;18701;45.588;5.288;2023-02-01T15:16:19;9.98;;;1.63;;
32200;SDS011;18701;45.588;5.288;2023-02-01T15:18:47;11.13;;;1.73;;
32200;SDS011;18701;45.588;5.288;2023-02-01T15:21:15;8.38;;;1.80;;
32200;SDS011;18701;45.588;5.288;2023-02-01T15:23:46;7.35;;;1.05;;
32200;SDS011;18701;45.588;5.288;2023-02-01T15:26:29;2.58;;;0.95;;
32200;SDS011;18701;45.588;5.288;2023-02-01T15:28:59;4.50;;;1.23;;
32200;SDS011;18701;45.588;5.288;2023-02-01T15:31:42;2.63;;;0.85;;
32200;SDS011;18701;45.588;5.288;2023-02-01T15:34:10;6.68;;;1.65;;
32200;SDS011;18701;45.588;5.288;2023-02-01T15:36:36;3.60;;;1.30;;
32200;SDS011;18701;45.588;5.288;2023-02-01T15:39:12;3.50;;;0.93;;
32200;SDS011;18701;45.588;5.288;2023-02-01T15:42:30;6.38;;;1.48;;
32200;SDS011;18701;45.588;5.288;2023-02-01T15:44:40;4.70;;;1.15;;
32200;SDS011;18701;45.588;5.288;2023-02-01T15:47:15;7.03;;;1.60;;
32200;SDS011;18701;45.588;5.288;2023-02-01T15:49:44;3.95;;;1.70;;
32200;SDS011;18701;45.588;5.288;2023-02-01T15:54:58;6.70;;;2.22;;
32200;SDS011;18701;45.588;5.288;2023-02-01T15:57:29;1.77;;;1.10;;
32200;SDS011;18701;45.588;5.288;2023-02-01T16:00:04;6.32;;;1.98;;
32200;SDS011;18701;45.588;5.288;2023-02-01T16:02:51;9.57;;;2.38;;
32200;SDS011;18701;45.588;5.288;2023-02-01T16:08:05;8.73;;;2.13;;
32200;SDS011;18701;45.588;5.288;2023-02-01T16:10:37;8.32;;;2.20;;
32200;SDS011;18701;45.588;5.288;2023-02-01T16:13:08;7.97;;;2.15;;
32200;SDS011;18701;45.588;5.288;2023-02-01T16:15:34;7.32;;;2.00;;
32200;SDS011;18701;45.588;5.288;2023-02-01T16:17:59;10.77;;;2.00;;
32200;SDS011;18701;45.588;5.288;2023-02-01T16:20:25;3.75;;;1.88;;
32200;SDS011;18701;45.588;5.288;2023-02-01T16:22:51;7.15;;;2.20;;
32200;SDS011;18701;45.588;5.288;2023-02-01T16:25:16;8.25;;;3.53;;
32200;SDS011;18701;45.588;5.288;2023-02-01T16:27:42;5.53;;;2.70;;
32200;SDS011;18701;45.588;5.288;2023-02-01T16:30:08;4.95;;;2.30;;
32200;SDS011;18701;45.588;5.288;2023-02-01T16:32:34;9.45;;;2.28;;
32200;SDS011;18701;45.588;5.288;2023-02-01T16:35:05;8.73;;;2.55;;
32200;SDS011;18701;45.588;5.288;2023-02-01T16:37:48;3.72;;;2.17;;
32200;SDS011;18701;45.588;5.288;2023-02-01T16:40:14;6.43;;;2.35;;
32200;SDS011;18701;45.588;5.288;2023-02-01T16:42:41;8.15;;;2.72;;
32200;SDS011;18701;45.588;5.288;2023-02-01T16:45:07;6.95;;;2.80;;
32200;SDS011;18701;45.588;5.288;2023-02-01T16:47:33;8.98;;;3.10;;
32200;SDS011;18701;45.588;5.288;2023-02-01T16:50:02;6.10;;;2.42;;
32200;SDS011;18701;45.588;5.288;2023-02-01T16:52:28;10.68;;;3.30;;
32200;SDS011;18701;45.588;5.288;2023-02-01T16:54:53;12.52;;;3.45;;
32200;SDS011;18701;45.588;5.288;2023-02-01T16:57:19;10.82;;;3.90;;
32200;SDS011;18701;45.588;5.288;2023-02-01T16:59:50;10.23;;;3.42;;
32200;SDS011;18701;45.588;5.288;2023-02-01T17:02:17;9.32;;;4.00;;
32200;SDS011;18701;45.588;5.288;2023-02-01T17:04:44;8.80;;;3.20;;
32200;SDS011;18701;45.588;5.288;2023-02-01T17:07:16;8.52;;;2.85;;
32200;SDS011;18701;45.588;5.288;2023-02-01T17:09:43;16.60;;;3.53;;
32200;SDS011;18701;45.588;5.288;2023-02-01T17:12:28;11.48;;;3.42;;
32200;SDS011;18701;45.588;5.288;2023-02-01T17:14:57;16.63;;;4.15;;
32200;SDS011;18701;45.588;5.288;2023-02-01T17:17:23;7.93;;;3.78;;
32200;SDS011;18701;45.588;5.288;2023-02-01T17:19:55;5.88;;;3.47;;
32200;SDS011;18701;45.588;5.288;2023-02-01T17:22:21;11.23;;;3.22;;
32200;SDS011;18701;45.588;5.288;2023-02-01T17:24:48;6.78;;;3.20;;
32200;SDS011;18701;45.588;5.288;2023-02-01T17:27:14;9.18;;;3.28;;
32200;SDS011;18701;45.588;5.288;2023-02-01T17:29:41;7.63;;;2.92;;
32200;SDS011;18701;45.588;5.288;2023-02-01T17:32:12;7.22;;;2.78;;
32200;SDS011;18701;45.588;5.288;2023-02-01T17:34:43;5.63;;;2.75;;